sensor_id;sensor_type;location;lat;lon;timestamp;P1;durP1;ratioP1;P2;durP2;ratioP2
59314;SDS011;46521;50.160;20.802;2023-02-15T00:07:38;41.10;;;21.50;;
59314;SDS011;46521;50.160;20.802;2023-02-15T00:17:39;34.30;;;19.10;;
59314;SDS011;46521;50.160;20.802;2023-02-15T00:27:43;37.45;;;19.55;;
59314;SDS011;46521;50.160;20.802;2023-02-15T00:37:45;39.10;;;21.50;;
59314;SDS011;46521;50.160;20.802;2023-02-15T00:47:46;46.70;;;25.30;;
59314;SDS011;46521;50.160;20.802;2023-02-15T00:57:47;45.65;;;22.20;;
59314;SDS011;46521;50.160;20.802;2023-02-15T01:07:49;41.80;;;21.60;;
59314;SDS011;46521;50.160;20.802;2023-02-15T01:17:50;42.55;;;19.90;;
59314;SDS011;46521;50.160;20.802;2023-02-15T01:27:53;43.60;;;21.80;;
59314;SDS011;46521;50.160;20.802;2023-02-15T01:37:55;37.90;;;19.40;;
59314;SDS011;46521;50.160;20.802;2023-02-15T01:58:23;34.13;;;18.53;;
59314;SDS011;46521;50.160;20.802;2023-02-15T02:08:28;30.40;;;14.85;;
59314;SDS011;46521;50.160;20.802;2023-02-15T02:49:31;37.70;;;19.40;;
59314;SDS011;46521;50.160;20.802;2023-02-15T02:59:39;35.80;;;17.00;;
59314;SDS011;46521;50.160;20.802;2023-02-15T03:09:49;32.35;;;16.00;;
59314;SDS011;46521;50.160;20.802;2023-02-15T03:19:54;26.30;;;13.50;;
59314;SDS011;46521;50.160;20.802;2023-02-15T03:29:58;29.40;;;13.87;;
59314;SDS011;46521;50.160;20.802;2023-02-15T03:40:10;29.40;;;15.50;;
59314;SDS011;46521;50.160;20.802;2023-02-15T03:50:31;33.00;;;17.35;;
59314;SDS011;46521;50.160;20.802;2023-02-15T04:00:57;30.10;;;16.85;;
59314;SDS011;46521;50.160;20.802;2023-02-15T04:11:19;28.20;;;14.45;;
59314;SDS011;46521;50.160;20.802;2023-02-15T04:21:21;28.50;;;15.75;;
59314;SDS011;46521;50.160;20.802;2023-02-15T04:31:42;28.35;;;14.20;;
59314;SDS011;46521;50.160;20.802;2023-02-15T04:41:44;26.60;;;13.90;;
59314;SDS011;46521;50.160;20.802;2023-02-15T04:51:46;31.00;;;16.20;;
59314;SDS011;46521;50.160;20.802;2023-02-15T05:01:48;34.07;;;16.70;;
59314;SDS011;46521;50.160;20.802;2023-02-15T05:11:49;30.13;;;16.30;;
59314;SDS011;46521;50.160;20.802;2023-02-15T05:21:51;33.05;;;16.40;;
59314;SDS011;46521;50.160;20.802;2023-02-15T05:31:52;24.70;;;13.30;;
59314;SDS011;46521;50.160;20.802;2023-02-15T05:41:54;32.90;;;16.30;;
59314;SDS011;46521;50.160;20.802;2023-02-15T05:51:55;31.00;;;15.40;;
59314;SDS011;46521;50.160;20.802;2023-02-15T06:01:57;30.60;;;15.50;;
59314;SDS011;46521;50.160;20.802;2023-02-15T06:11:58;33.10;;;17.50;;
59314;SDS011;46521;50.160;20.802;2023-02-15T06:22:00;30.35;;;14.70;;
59314;SDS011;46521;50.160;20.802;2023-02-15T06:32:01;33.20;;;17.55;;
59314;SDS011;46521;50.160;20.802;2023-02-15T06:42:03;32.50;;;16.70;;
59314;SDS011;46521;50.160;20.802;2023-02-15T06:52:05;32.30;;;16.60;;
59314;SDS011;46521;50.160;20.802;2023-02-15T07:02:08;34.55;;;17.75;;
59314;SDS011;46521;50.160;20.802;2023-02-15T07:12:10;27.10;;;13.80;;
59314;SDS011;46521;50.160;20.802;2023-02-15T07:22:29;30.90;;;15.50;;
59314;SDS011;46521;50.160;20.802;2023-02-15T07:32:32;29.70;;;15.80;;
59314;SDS011;46521;50.160;20.802;2023-02-15T07:42:34;32.60;;;16.15;;
59314;SDS011;46521;50.160;20.802;2023-02-15T07:52:35;32.60;;;15.80;;
59314;SDS011;46521;50.160;20.802;2023-02-15T08:02:37;32.90;;;16.80;;
59314;SDS011;46521;50.160;20.802;2023-02-15T08:12:38;33.80;;;17.30;;
59314;SDS011;46521;50.160;20.802;2023-02-15T08:22:40;37.80;;;18.70;;
59314;SDS011;46521;50.160;20.802;2023-02-15T08:32:41;39.20;;;19.07;;
59314;SDS011;46521;50.160;20.802;2023-02-15T08:42:43;46.40;;;22.80;;
59314;SDS011;46521;50.160;20.802;2023-02-15T08:52:46;53.80;;;25.50;;
59314;SDS011;46521;50.160;20.802;2023-02-15T09:02:48;56.45;;;25.95;;
59314;SDS011;46521;50.160;20.802;2023-02-15T09:12:49;78.00;;;32.00;;
59314;SDS011;46521;50.160;20.802;2023-02-15T09:22:51;84.13;;;35.07;;
59314;SDS011;46521;50.160;20.802;2023-02-15T09:32:55;91.30;;;37.00;;
59314;SDS011;46521;50.160;20.802;2023-02-15T09:53:05;88.83;;;35.90;;
59314;SDS011;46521;50.160;20.802;2023-02-15T10:03:25;103.60;;;44.53;;
59314;SDS011;46521;50.160;20.802;2023-02-15T10:13:37;61.25;;;29.20;;
59314;SDS011;46521;50.160;20.802;2023-02-15T11:26:36;44.20;;;22.40;;
59314;SDS011;46521;50.160;20.802;2023-02-15T11:36:16;39.95;;;20.75;;
59314;SDS011;46521;50.160;20.802;2023-02-15T11:46:36;39.47;;;19.07;;
59314;SDS011;46521;50.160;20.802;2023-02-15T11:56:38;40.30;;;21.53;;
59314;SDS011;46521;50.160;20.802;2023-02-15T12:06:44;41.15;;;22.40;;
59314;SDS011;46521;50.160;20.802;2023-02-15T12:16:51;43.03;;;21.15;;
59314;SDS011;46521;50.160;20.802;2023-02-15T12:27:11;38.50;;;20.65;;
59314;SDS011;46521;50.160;20.802;2023-02-15T12:37:26;41.68;;;20.52;;
59314;SDS011;46521;50.160;20.802;2023-02-15T12:47:32;42.40;;;22.85;;
59314;SDS011;46521;50.160;20.802;2023-02-15T12:57:33;38.40;;;20.10;;
59314;SDS011;46521;50.160;20.802;2023-02-15T13:07:35;40.55;;;20.20;;
59314;SDS011;46521;50.160;20.802;2023-02-15T13:17:38;43.73;;;22.47;;
59314;SDS011;46521;50.160;20.802;2023-02-15T13:27:40;42.20;;;21.73;;
59314;SDS011;46521;50.160;20.802;2023-02-15T13:38:00;43.13;;;20.87;;
59314;SDS011;46521;50.160;20.802;2023-02-15T13:59:48;37.00;;;19.20;;
59314;SDS011;46521;50.160;20.802;2023-02-15T14:20:20;37.93;;;20.75;;
59314;SDS011;46521;50.160;20.802;2023-02-15T14:30:34;36.15;;;19.00;;
59314;SDS011;46521;50.160;20.802;2023-02-15T14:40:57;36.55;;;18.60;;
59314;SDS011;46521;50.160;20.802;2023-02-15T14:51:08;35.70;;;20.73;;
59314;SDS011;46521;50.160;20.802;2023-02-15T15:01:10;48.90;;;26.40;;
59314;SDS011;46521;50.160;20.802;2023-02-15T15:11:45;49.05;;;23.95;;
59314;SDS011;46521;50.160;20.802;2023-02-15T15:31:52;46.75;;;25.85;;
59314;SDS011;46521;50.160;20.802;2023-02-15T15:52:23;55.60;;;30.80;;
59314;SDS011;46521;50.160;20.802;2023-02-15T16:02:27;54.50;;;31.20;;
59314;SDS011;46521;50.160;20.802;2023-02-15T16:12:30;42.50;;;24.05;;
59314;SDS011;46521;50.160;20.802;2023-02-15T16:22:34;52.83;;;30.03;;
59314;SDS011;46521;50.160;20.802;2023-02-15T16:32:36;58.70;;;31.65;;
59314;SDS011;46521;50.160;20.802;2023-02-15T16:42:38;72.13;;;37.00;;
59314;SDS011;46521;50.160;20.802;2023-02-15T16:52:40;82.00;;;41.20;;
59314;SDS011;46521;50.160;20.802;2023-02-15T17:13:15;55.90;;;29.20;;
59314;SDS011;46521;50.160;20.802;2023-02-15T17:23:20;76.05;;;40.85;;
59314;SDS011;46521;50.160;20.802;2023-02-15T17:33:35;94.40;;;49.80;;
59314;SDS011;46521;50.160;20.802;2023-02-15T17:43:40;61.40;;;33.75;;
59314;SDS011;46521;50.160;20.802;2023-02-15T17:53:42;56.10;;;31.00;;
59314;SDS011;46521;50.160;20.802;2023-02-15T18:04:03;55.75;;;30.45;;
59314;SDS011;46521;50.160;20.802;2023-02-15T18:14:24;66.70;;;35.50;;
59314;SDS011;46521;50.160;20.802;2023-02-15T18:24:26;68.00;;;38.80;;
59314;SDS011;46521;50.160;20.802;2023-02-15T18:34:31;84.10;;;43.05;;
59314;SDS011;46521;50.160;20.802;2023-02-15T18:44:35;80.00;;;42.50;;
59314;SDS011;46521;50.160;20.802;2023-02-15T18:54:37;70.90;;;40.20;;
59314;SDS011;46521;50.160;20.802;2023-02-15T19:04:39;62.35;;;32.10;;
59314;SDS011;46521;50.160;20.802;2023-02-15T19:14:41;73.70;;;40.00;;
59314;SDS011;46521;50.160;20.802;2023-02-15T19:24:43;88.40;;;47.10;;
59314;SDS011;46521;50.160;20.802;2023-02-15T19:34:47;89.00;;;47.20;;
59314;SDS011;46521;50.160;20.802;2023-02-15T19:44:49;94.80;;;46.80;;
59314;SDS011;46521;50.160;20.802;2023-02-15T19:54:52;85.90;;;46.45;;
59314;SDS011;46521;50.160;20.802;2023-02-15T20:04:54;79.70;;;44.40;;
59314;SDS011;46521;50.160;20.802;2023-02-15T20:14:56;86.80;;;47.05;;
59314;SDS011;46521;50.160;20.802;2023-02-15T20:24:58;85.75;;;45.35;;
59314;SDS011;46521;50.160;20.802;2023-02-15T20:35:02;88.20;;;46.70;;
59314;SDS011;46521;50.160;20.802;2023-02-15T20:45:13;79.70;;;44.47;;
59314;SDS011;46521;50.160;20.802;2023-02-15T20:55:17;68.10;;;38.80;;
59314;SDS011;46521;50.160;20.802;2023-02-15T21:05:22;75.25;;;39.15;;
59314;SDS011;46521;50.160;20.802;2023-02-15T21:25:36;94.83;;;50.27;;
59314;SDS011;46521;50.160;20.802;2023-02-15T21:35:38;83.50;;;47.70;;
59314;SDS011;46521;50.160;20.802;2023-02-15T21:45:40;96.85;;;53.65;;
59314;SDS011;46521;50.160;20.802;2023-02-15T21:56:18;102.10;;;51.40;;
59314;SDS011;46521;50.160;20.802;2023-02-15T22:06:21;80.00;;;46.10;;
59314;SDS011;46521;50.160;20.802;2023-02-15T22:16:23;87.30;;;46.30;;
59314;SDS011;46521;50.160;20.802;2023-02-15T22:26:24;83.85;;;44.00;;
59314;SDS011;46521;50.160;20.802;2023-02-15T22:36:28;84.60;;;45.00;;
59314;SDS011;46521;50.160;20.802;2023-02-15T22:46:30;71.30;;;39.45;;
59314;SDS011;46521;50.160;20.802;2023-02-15T23:06:49;78.95;;;41.15;;
59314;SDS011;46521;50.160;20.802;2023-02-15T23:16:52;73.00;;;37.10;;
59314;SDS011;46521;50.160;20.802;2023-02-15T23:26:55;86.00;;;46.40;;
59314;SDS011;46521;50.160;20.802;2023-02-15T23:37:19;110.00;;;57.00;;
59314;SDS011;46521;50.160;20.802;2023-02-15T23:47:54;112.80;;;56.65;;
